createdAt,value
2023-01-07T00:01:08.106Z,29.67
2023-01-07T00:04:16.627Z,32.00
2023-01-07T00:07:22.828Z,19.07
2023-01-07T00:10:29.339Z,12.53
2023-01-07T00:13:37.764Z,11.30
2023-01-07T00:16:44.224Z,15.63
2023-01-07T00:19:50.556Z,8.03
2023-01-07T00:22:56.519Z,27.30
2023-01-07T00:26:04.447Z,15.03
2023-01-07T00:29:12.196Z,14.27
2023-01-07T00:32:18.372Z,13.77
2023-01-07T00:35:24.848Z,14.80
2023-01-07T00:38:31.224Z,19.00
2023-01-07T00:41:37.757Z,14.70
2023-01-07T00:44:45.647Z,26.53
2023-01-07T00:47:53.654Z,18.07
2023-01-07T00:51:00.018Z,15.60
2023-01-07T00:54:06.409Z,17.70
2023-01-07T00:57:14.088Z,30.63
2023-01-07T01:00:23.565Z,14.63
2023-01-07T01:03:31.288Z,18.87
2023-01-07T01:06:37.807Z,18.83
2023-01-07T01:09:43.861Z,7.47
2023-01-07T01:12:50.357Z,17.60
2023-01-07T01:15:58.103Z,17.03
2023-01-07T01:19:04.842Z,9.27
2023-01-07T01:22:11.258Z,9.40
2023-01-07T01:25:17.796Z,12.90
2023-01-07T01:28:23.935Z,12.93
2023-01-07T01:31:31.570Z,17.03
2023-01-07T01:34:38.180Z,13.37
2023-01-07T01:37:44.778Z,10.17
2023-01-07T01:40:50.983Z,13.83
2023-01-07T01:43:57.097Z,12.67
2023-01-07T01:47:07.722Z,21.47
2023-01-07T01:50:20.017Z,16.10
2023-01-07T01:53:31.019Z,12.10
2023-01-07T01:56:41.211Z,16.10
2023-01-07T01:59:50.732Z,8.27
2023-01-07T02:03:00.084Z,12.37
2023-01-07T02:06:07.401Z,18.53
2023-01-07T02:09:13.931Z,25.17
2023-01-07T02:12:40.581Z,21.73
2023-01-07T02:15:55.689Z,21.83
2023-01-07T02:19:43.387Z,10.07
2023-01-07T02:23:18.446Z,8.20
2023-01-07T02:26:59.153Z,12.57
2023-01-07T02:30:46.449Z,9.97
2023-01-07T02:34:00.198Z,11.90
2023-01-07T02:37:14.303Z,12.57
2023-01-07T02:40:26.246Z,14.47
2023-01-07T02:43:41.369Z,14.80
2023-01-07T02:46:53.065Z,12.57
2023-01-07T02:50:00.599Z,15.00
2023-01-07T02:53:09.490Z,16.07
2023-01-07T02:56:28.474Z,8.50
2023-01-07T03:00:05.615Z,14.73
2023-01-07T03:03:25.919Z,8.20
2023-01-07T03:06:48.210Z,8.57
2023-01-07T03:10:04.007Z,9.73
2023-01-07T03:13:15.792Z,10.80
2023-01-07T03:16:27.634Z,11.00
2023-01-07T03:19:37.529Z,11.63
2023-01-07T03:22:48.132Z,10.10
2023-01-07T03:25:56.817Z,18.63
2023-01-07T03:29:06.029Z,14.23
2023-01-07T03:32:16.789Z,11.33
2023-01-07T03:35:24.411Z,16.40
2023-01-07T03:38:32.942Z,13.57
2023-01-07T03:42:02.517Z,10.23
2023-01-07T03:45:12.553Z,8.73
2023-01-07T03:48:18.699Z,10.47
2023-01-07T03:51:25.227Z,13.70
2023-01-07T03:54:32.951Z,9.73
2023-01-07T03:57:39.467Z,10.40
2023-01-07T04:00:46.118Z,17.27
2023-01-07T04:03:52.539Z,14.97
2023-01-07T04:06:59.163Z,29.00
2023-01-07T04:10:08.898Z,20.83
2023-01-07T04:13:15.466Z,30.97
2023-01-07T04:16:22.102Z,11.63
2023-01-07T04:19:28.339Z,12.73
2023-01-07T04:22:34.986Z,9.20
2023-01-07T04:25:42.943Z,15.70
2023-01-07T04:28:49.081Z,33.93
2023-01-07T04:31:55.425Z,25.23
2023-01-07T04:35:01.563Z,26.27
2023-01-07T04:38:08.097Z,28.93
2023-01-07T04:41:16.413Z,23.40
2023-01-07T04:44:22.867Z,27.87
2023-01-07T04:47:29.017Z,21.27
2023-01-07T04:50:35.576Z,34.37
2023-01-07T04:53:41.796Z,32.13
2023-01-07T04:56:49.739Z,19.97
2023-01-07T04:59:56.257Z,11.70
2023-01-07T05:03:02.478Z,13.47
2023-01-07T05:06:09.558Z,18.93
2023-01-07T05:09:15.915Z,40.43
2023-01-07T05:12:23.557Z,37.07
2023-01-07T05:15:29.854Z,29.73
2023-01-07T05:18:36.412Z,25.10
2023-01-07T05:21:43.289Z,24.97
2023-01-07T05:24:49.619Z,16.20
2023-01-07T05:27:57.262Z,22.40
2023-01-07T05:31:03.465Z,24.83
2023-01-07T05:34:09.812Z,14.80
2023-01-07T05:37:16.317Z,25.97
2023-01-07T05:40:22.416Z,20.00
2023-01-07T05:43:29.836Z,30.70
2023-01-07T05:46:36.205Z,19.93
2023-01-07T05:49:42.322Z,20.97
2023-01-07T05:52:48.575Z,21.00
2023-01-07T05:55:57.745Z,24.33
2023-01-07T05:59:05.669Z,22.50
2023-01-07T06:02:12.005Z,22.20
2023-01-07T06:05:18.338Z,26.27
2023-01-07T06:08:24.787Z,25.67
2023-01-07T06:11:31.395Z,51.07
2023-01-07T06:14:39.359Z,20.57
2023-01-07T06:17:46.057Z,30.03
2023-01-07T06:20:52.466Z,23.10
2023-01-07T06:23:58.903Z,32.13
2023-01-07T06:27:05.582Z,169.20
2023-01-07T06:30:14.097Z,66.00
2023-01-07T06:33:20.667Z,58.70
2023-01-07T06:36:27.150Z,35.20
2023-01-07T06:39:33.269Z,30.63
2023-01-07T06:42:39.608Z,18.90
2023-01-07T06:45:47.282Z,15.83
2023-01-07T06:48:53.907Z,11.23
2023-01-07T06:52:00.115Z,25.00
2023-01-07T06:55:06.605Z,28.97
2023-01-07T06:58:13.044Z,42.53
2023-01-07T07:01:21.720Z,42.07
2023-01-07T07:04:28.412Z,54.67
2023-01-07T07:07:34.911Z,58.77
2023-01-07T07:10:41.371Z,68.90
2023-01-07T07:13:47.506Z,63.80
2023-01-07T07:16:55.141Z,51.47
2023-01-07T07:20:01.731Z,50.13
2023-01-07T07:23:07.965Z,45.17
2023-01-07T07:26:15.075Z,26.17
2023-01-07T07:29:21.924Z,29.10
2023-01-07T07:32:29.937Z,32.87
2023-01-07T07:35:36.449Z,19.63
2023-01-07T07:38:42.994Z,15.77
2023-01-07T07:41:49.243Z,15.70
2023-01-07T07:44:55.714Z,11.70
2023-01-07T07:48:03.235Z,7.50
2023-01-07T07:51:09.776Z,22.00
2023-01-07T07:54:16.095Z,25.93
2023-01-07T07:57:22.178Z,35.13
2023-01-07T08:00:28.030Z,26.53
2023-01-07T08:03:35.724Z,34.50
2023-01-07T08:06:42.181Z,20.20
2023-01-07T08:09:48.419Z,11.73
2023-01-07T08:12:54.703Z,20.70
2023-01-07T08:16:00.949Z,25.00
2023-01-07T08:19:08.503Z,23.57
2023-01-07T08:22:14.592Z,18.90
2023-01-07T08:25:20.984Z,14.57
2023-01-07T08:28:27.227Z,27.30
2023-01-07T08:31:33.971Z,28.13
2023-01-07T08:34:41.511Z,25.57
2023-01-07T08:37:48.068Z,16.83
2023-01-07T08:40:54.534Z,18.50
2023-01-07T08:44:00.802Z,18.37
2023-01-07T08:47:06.990Z,13.80
2023-01-07T08:50:14.848Z,16.80
2023-01-07T08:53:21.916Z,18.67
2023-01-07T08:56:28.052Z,11.93
2023-01-07T08:59:34.615Z,21.47
2023-01-07T09:02:40.666Z,16.60
2023-01-07T09:05:49.115Z,14.87
2023-01-07T09:08:55.443Z,12.10
2023-01-07T09:12:01.758Z,16.67
2023-01-07T09:15:09.883Z,20.57
2023-01-07T09:18:16.257Z,13.57
2023-01-07T09:21:23.967Z,17.80
2023-01-07T09:24:30.047Z,18.80
2023-01-07T09:27:37.427Z,7.97
2023-01-07T09:30:43.573Z,9.13
2023-01-07T09:33:50.323Z,11.23
2023-01-07T09:36:58.044Z,9.70
2023-01-07T09:40:04.812Z,10.17
2023-01-07T09:43:17.792Z,19.17
2023-01-07T09:46:24.771Z,20.27
2023-01-07T09:49:32.703Z,15.83
2023-01-07T09:52:44.988Z,28.90
2023-01-07T09:56:11.791Z,13.87
2023-01-07T09:59:20.830Z,14.10
2023-01-07T10:02:38.002Z,9.47
2023-01-07T10:05:57.455Z,12.63
2023-01-07T10:09:13.808Z,13.63
2023-01-07T10:12:28.002Z,11.17
2023-01-07T10:15:48.925Z,11.03
2023-01-07T10:19:02.903Z,15.90
2023-01-07T10:22:16.699Z,10.93
2023-01-07T10:25:29.200Z,11.63
2023-01-07T10:28:41.600Z,7.60
2023-01-07T10:31:48.409Z,13.17
2023-01-07T10:34:58.275Z,9.90
2023-01-07T10:38:06.912Z,8.13
2023-01-07T10:41:22.757Z,10.63
2023-01-07T10:44:53.818Z,8.53
2023-01-07T10:48:26.638Z,6.70
2023-01-07T10:51:54.723Z,3.20
2023-01-07T10:55:29.634Z,9.93
2023-01-07T10:58:41.794Z,12.13
2023-01-07T11:01:53.129Z,17.40
2023-01-07T11:05:01.088Z,23.43
2023-01-07T11:08:16.792Z,31.63
2023-01-07T11:11:25.500Z,16.40
2023-01-07T11:14:37.793Z,8.63
2023-01-07T11:17:50.307Z,11.47
2023-01-07T11:20:58.091Z,9.63
2023-01-07T11:24:32.831Z,9.53
2023-01-07T11:27:46.860Z,3.57
2023-01-07T11:31:00.411Z,9.43
2023-01-07T11:34:06.781Z,3.80
2023-01-07T11:37:31.004Z,4.47
2023-01-07T11:40:37.698Z,10.37
2023-01-07T11:43:50.231Z,5.77
2023-01-07T11:46:58.128Z,9.53
2023-01-07T11:50:04.751Z,17.87
2023-01-07T11:53:27.783Z,13.40
2023-01-07T11:56:35.067Z,9.20
2023-01-07T11:59:41.294Z,14.13
2023-01-07T12:03:01.750Z,13.83
2023-01-07T12:06:15.936Z,19.20
2023-01-07T12:09:27.014Z,19.43
2023-01-07T12:12:34.812Z,25.60
2023-01-07T12:15:53.194Z,26.17
2023-01-07T12:19:25.088Z,8.63
2023-01-07T12:22:42.235Z,7.17
2023-01-07T12:25:57.953Z,11.07
2023-01-07T12:29:17.267Z,14.00
2023-01-07T12:32:37.167Z,9.40
2023-01-07T12:35:46.097Z,7.90
2023-01-07T12:38:57.555Z,8.37
2023-01-07T12:42:09.459Z,31.57
2023-01-07T12:45:20.860Z,10.30
2023-01-07T12:48:37.542Z,9.47
2023-01-07T12:51:51.305Z,8.87
2023-01-07T12:55:03.114Z,11.80
2023-01-07T12:58:18.388Z,10.63
2023-01-07T13:01:30.247Z,9.27
2023-01-07T13:04:47.937Z,9.53
2023-01-07T13:08:04.290Z,16.43
2023-01-07T13:11:41.027Z,12.67
2023-01-07T13:14:52.190Z,14.17
2023-01-07T13:18:00.619Z,13.80
2023-01-07T13:21:09.965Z,11.97
2023-01-07T13:24:55.671Z,15.37
2023-01-07T13:28:17.858Z,22.50
2023-01-07T13:31:42.770Z,17.83
2023-01-07T13:35:04.259Z,11.73
2023-01-07T13:38:52.904Z,5.97
2023-01-07T13:42:15.167Z,8.23
2023-01-07T13:45:24.796Z,25.27
2023-01-07T13:48:34.805Z,10.23
2023-01-07T13:51:41.176Z,51.03
2023-01-07T13:54:59.431Z,22.13
2023-01-07T13:58:44.095Z,42.50
2023-01-07T14:02:21.985Z,44.77
2023-01-07T14:05:29.730Z,51.17
2023-01-07T14:08:36.186Z,53.57
2023-01-07T14:11:59.546Z,60.97
2023-01-07T14:15:39.265Z,53.67
2023-01-07T14:19:09.867Z,86.93
2023-01-07T14:22:29.813Z,113.40
2023-01-07T14:25:50.468Z,52.60
2023-01-07T14:29:33.143Z,71.17
2023-01-07T14:32:42.940Z,53.00
2023-01-07T14:36:00.845Z,53.33
2023-01-07T14:39:27.184Z,57.33
2023-01-07T14:42:44.851Z,75.23
2023-01-07T14:45:56.059Z,67.40
2023-01-07T14:49:27.585Z,80.50
2023-01-07T14:53:29.891Z,105.40
2023-01-07T14:56:50.547Z,83.17
2023-01-07T15:00:25.146Z,89.33
2023-01-07T15:04:01.250Z,87.00
2023-01-07T15:07:17.670Z,57.17
2023-01-07T15:10:44.505Z,113.70
2023-01-07T15:14:15.870Z,150.27
2023-01-07T15:17:22.198Z,119.37
2023-01-07T15:20:46.344Z,109.67
2023-01-07T15:24:02.793Z,95.57
2023-01-07T15:27:18.866Z,45.83
2023-01-07T15:30:44.249Z,65.77
2023-01-07T15:34:07.531Z,75.53
2023-01-07T15:37:15.541Z,79.73
2023-01-07T15:40:26.537Z,81.13
2023-01-07T15:43:33.499Z,73.67
2023-01-07T15:46:41.932Z,75.20
2023-01-07T15:49:48.353Z,64.37
2023-01-07T15:52:56.172Z,61.93
2023-01-07T15:56:06.795Z,87.87
2023-01-07T15:59:16.592Z,61.17
2023-01-07T16:02:27.909Z,56.33
2023-01-07T16:05:38.085Z,60.73
2023-01-07T16:08:45.907Z,93.17
2023-01-07T16:11:53.686Z,56.40
2023-01-07T16:15:00.454Z,51.57
2023-01-07T16:18:19.071Z,54.73
2023-01-07T16:21:27.634Z,53.93
2023-01-07T16:24:34.122Z,56.23
2023-01-07T16:27:41.868Z,71.37
2023-01-07T16:30:49.337Z,138.47
2023-01-07T16:33:58.273Z,62.23
2023-01-07T16:37:08.203Z,67.30
2023-01-07T16:40:21.855Z,70.90
2023-01-07T16:43:44.758Z,77.57
2023-01-07T16:47:07.696Z,118.67
2023-01-07T16:50:37.571Z,73.50
2023-01-07T16:53:43.621Z,97.30
2023-01-07T16:56:50.355Z,133.67
2023-01-07T17:00:01.782Z,158.33
2023-01-07T17:03:13.497Z,173.20
2023-01-07T17:06:24.950Z,150.87
2023-01-07T17:09:37.130Z,81.77
2023-01-07T17:12:43.594Z,105.93
2023-01-07T17:15:51.740Z,77.47
2023-01-07T17:18:59.620Z,82.93
2023-01-07T17:22:28.679Z,122.73
2023-01-07T17:25:35.890Z,73.13
2023-01-07T17:28:48.262Z,119.73
2023-01-07T17:31:55.992Z,97.10
2023-01-07T17:35:04.442Z,105.37
2023-01-07T17:38:13.828Z,62.63
2023-01-07T17:41:39.559Z,97.00
2023-01-07T17:44:45.912Z,100.43
2023-01-07T17:47:54.028Z,73.63
2023-01-07T17:51:01.566Z,50.03
2023-01-07T17:54:08.752Z,114.37
2023-01-07T17:57:14.861Z,76.87
2023-01-07T18:00:26.418Z,64.93
2023-01-07T18:03:34.062Z,102.00
2023-01-07T18:06:42.992Z,95.60
2023-01-07T18:09:49.512Z,133.53
2023-01-07T18:12:55.849Z,111.73
2023-01-07T18:16:01.963Z,102.23
2023-01-07T18:19:12.899Z,97.03
2023-01-07T18:22:20.731Z,78.33
2023-01-07T18:25:27.069Z,72.87
2023-01-07T18:28:33.140Z,102.23
2023-01-07T18:31:42.736Z,169.57
2023-01-07T18:34:50.409Z,138.77
2023-01-07T18:37:57.295Z,122.03
2023-01-07T18:41:03.597Z,151.07
2023-01-07T18:44:09.998Z,182.97
2023-01-07T18:47:16.064Z,164.97
2023-01-07T18:50:24.716Z,107.53
2023-01-07T18:53:30.984Z,99.67
2023-01-07T18:56:37.174Z,57.80
2023-01-07T18:59:43.558Z,63.77
2023-01-07T19:02:49.943Z,63.33
2023-01-07T19:05:59.070Z,74.00
2023-01-07T19:09:05.530Z,78.57
2023-01-07T19:12:12.570Z,84.37
2023-01-07T19:15:19.516Z,41.27
2023-01-07T19:18:26.283Z,36.47
2023-01-07T19:21:34.129Z,28.60
2023-01-07T19:24:40.775Z,37.63
2023-01-07T19:27:47.067Z,34.83
2023-01-07T19:30:53.707Z,38.20
2023-01-07T19:34:00.195Z,24.83
2023-01-07T19:37:07.786Z,32.67
2023-01-07T19:40:14.652Z,45.07
2023-01-07T19:43:21.190Z,35.60
2023-01-07T19:46:28.528Z,55.20
2023-01-07T19:49:36.173Z,41.63
2023-01-07T19:52:44.414Z,75.27
2023-01-07T19:55:52.198Z,92.03
2023-01-07T19:58:59.338Z,131.13
2023-01-07T20:02:05.952Z,81.50
2023-01-07T20:05:12.186Z,87.90
2023-01-07T20:08:19.701Z,63.60
2023-01-07T20:11:26.477Z,54.40
2023-01-07T20:14:32.623Z,62.93
2023-01-07T20:17:38.903Z,80.30
2023-01-07T20:20:44.992Z,90.10
2023-01-07T20:23:53.173Z,74.30
2023-01-07T20:26:59.207Z,22.67
2023-01-07T20:30:06.501Z,25.33
2023-01-07T20:33:12.718Z,26.17
2023-01-07T20:36:20.450Z,37.33
2023-01-07T20:39:28.480Z,39.27
2023-01-07T20:42:34.916Z,36.40
2023-01-07T20:45:41.222Z,50.73
2023-01-07T20:48:47.586Z,37.77
2023-01-07T20:51:54.040Z,39.30
2023-01-07T20:55:02.176Z,51.07
2023-01-07T20:58:08.863Z,42.63
2023-01-07T21:01:17.811Z,34.17
2023-01-07T21:04:24.517Z,39.77
2023-01-07T21:07:30.805Z,40.73
2023-01-07T21:10:39.325Z,36.90
2023-01-07T21:13:45.797Z,50.33
2023-01-07T21:16:51.997Z,50.87
2023-01-07T21:19:58.283Z,39.60
2023-01-07T21:23:04.507Z,39.73
2023-01-07T21:26:13.477Z,39.33
2023-01-07T21:29:20.216Z,41.00
2023-01-07T21:32:26.798Z,51.57
2023-01-07T21:35:33.195Z,58.93
2023-01-07T21:38:39.466Z,42.87
2023-01-07T21:41:46.921Z,28.93
2023-01-07T21:44:53.206Z,30.90
2023-01-07T21:47:59.356Z,28.93
2023-01-07T21:51:07.475Z,19.43
2023-01-07T21:54:13.802Z,29.07
2023-01-07T21:57:21.464Z,18.63
2023-01-07T22:00:27.861Z,36.03
2023-01-07T22:03:34.461Z,44.17
2023-01-07T22:06:41.155Z,49.83
2023-01-07T22:09:48.210Z,38.33
2023-01-07T22:12:55.960Z,75.10
2023-01-07T22:16:02.055Z,72.90
2023-01-07T22:19:08.679Z,89.97
2023-01-07T22:22:16.788Z,69.20
2023-01-07T22:25:23.106Z,74.27
2023-01-07T22:28:33.576Z,62.70
2023-01-07T22:31:39.800Z,43.10
2023-01-07T22:34:46.142Z,30.13
2023-01-07T22:37:53.203Z,26.13
2023-01-07T22:41:00.160Z,20.47
2023-01-07T22:44:14.354Z,12.20
2023-01-07T22:47:26.458Z,7.43
2023-01-07T22:50:33.497Z,12.77
2023-01-07T22:53:39.660Z,17.27
2023-01-07T22:56:46.652Z,35.80
2023-01-07T22:59:54.521Z,41.77
2023-01-07T23:03:00.683Z,39.23
2023-01-07T23:06:07.567Z,56.07
2023-01-07T23:09:14.095Z,56.97
2023-01-07T23:12:20.473Z,64.57
2023-01-07T23:15:28.320Z,57.07
2023-01-07T23:18:35.104Z,31.87
2023-01-07T23:21:42.676Z,18.30
2023-01-07T23:24:48.980Z,20.37
2023-01-07T23:27:55.972Z,25.03
2023-01-07T23:31:04.312Z,18.03
2023-01-07T23:34:11.204Z,16.50
2023-01-07T23:37:17.940Z,23.33
2023-01-07T23:40:24.814Z,23.50
2023-01-07T23:43:31.900Z,19.13
2023-01-07T23:46:39.868Z,35.77
2023-01-07T23:49:46.321Z,23.97
2023-01-07T23:52:52.729Z,18.93
2023-01-07T23:56:03.219Z,25.70
2023-01-07T23:59:10.467Z,15.80
